Time;durP1;ratioP1;P1;durP2;ratioP2;P2;SDS_P1;SDS_P2;PMS_P1;PMS_P2;Temp;Humidity;BMP_temperature;BMP_pressure;BME280_temperature;BME280_humidity;BME280_pressure;Samples;Min_cycle;Max_cycle;Signal;HPM_P1;HPM_P2
2022/10/29 00:02:25;;;;;;;18.50;4.40;;;13.10;99.90;;;;;;5085081;28;20052;-71
2022/10/29 00:04:50;;;;;;;18.52;4.38;;;13.00;99.90;;;;;;5046735;28;20056;-71
2022/10/29 00:07:16;;;;;;;19.50;4.43;;;12.90;99.90;;;;;;5085797;28;20047;-71
2022/10/29 00:09:42;;;;;;;17.63;4.78;;;12.90;99.90;;;;;;5084208;28;20045;-71
2022/10/29 00:12:07;;;;;;;21.27;4.30;;;12.80;99.90;;;;;;5071856;28;20076;-71
2022/10/29 00:14:34;;;;;;;21.20;4.65;;;12.90;99.90;;;;;;5084755;28;20040;-71
2022/10/29 00:16:59;;;;;;;16.63;4.18;;;12.80;99.90;;;;;;5084715;28;20075;-71
2022/10/29 00:19:26;;;;;;;17.77;3.92;;;12.80;99.90;;;;;;5065533;28;20175;-71
2022/10/29 00:21:52;;;;;;;18.02;4.68;;;12.80;99.90;;;;;;5082035;28;20049;-71
2022/10/29 00:24:18;;;;;;;19.58;4.50;;;12.80;99.90;;;;;;5083261;28;20048;-72
2022/10/29 00:26:43;;;;;;;22.58;4.60;;;12.70;99.90;;;;;;5062858;28;20045;-71
2022/10/29 00:29:09;;;;;;;17.63;3.95;;;12.70;99.90;;;;;;5057274;28;20078;-71
2022/10/29 00:31:35;;;;;;;14.30;4.75;;;12.70;99.90;;;;;;5084175;28;20067;-71
2022/10/29 00:34:01;;;;;;;19.25;5.00;;;12.70;99.90;;;;;;5065792;28;20052;-71
2022/10/29 00:36:28;;;;;;;15.05;4.30;;;12.90;99.90;;;;;;5082002;28;20048;-71
2022/10/29 00:38:55;;;;;;;17.45;5.00;;;12.90;99.90;;;;;;5087082;28;20060;-72
2022/10/29 00:41:28;;;;;;;17.95;5.20;;;12.80;99.90;;;;;;5082870;28;20137;-71
2022/10/29 00:44:23;;;;;;;22.52;5.47;;;12.80;99.90;;;;;;5082732;28;20056;-72
2022/10/29 00:46:51;;;;;;;12.70;4.22;;;12.70;99.90;;;;;;5065874;28;20048;-72
2022/10/29 00:49:18;;;;;;;13.40;4.93;;;12.60;99.90;;;;;;5066356;28;20051;-71
2022/10/29 00:51:46;;;;;;;18.08;4.90;;;12.60;99.90;;;;;;5067091;28;20052;-71
2022/10/29 00:54:16;;;;;;;11.68;4.60;;;12.60;99.90;;;;;;5065658;28;20071;-72
2022/10/29 00:56:44;;;;;;;;;;;12.60;99.90;;;;;;5085708;28;20047;-72
2022/10/29 00:59:11;;;;;;;20.08;5.80;;;12.60;99.90;;;;;;5070215;28;19928;-71
2022/10/29 01:01:37;;;;;;;19.90;5.82;;;12.60;99.90;;;;;;5067122;28;20481;-72
2022/10/29 01:04:04;;;;;;;18.05;5.00;;;12.60;99.90;;;;;;5084317;28;20088;-71
2022/10/29 01:06:30;;;;;;;16.65;5.80;;;12.60;99.90;;;;;;5065150;28;20048;-71
2022/10/29 01:08:56;;;;;;;17.17;5.30;;;12.60;99.90;;;;;;5082157;28;20053;-71
2022/10/29 01:11:46;;;;;;;16.45;6.60;;;12.60;99.90;;;;;;5065563;28;20040;-71
2022/10/29 01:14:21;;;;;;;;;;;12.60;99.90;;;;;;5065720;28;20072;-71
2022/10/29 01:17:02;;;;;;;13.52;5.97;;;12.60;99.90;;;;;;5065860;28;20011;-71
2022/10/29 01:19:33;;;;;;;22.35;5.88;;;12.70;99.90;;;;;;5083439;28;20076;-71
2022/10/29 01:22:11;;;;;;;15.10;5.30;;;12.60;99.90;;;;;;5083358;28;20051;-71
2022/10/29 01:25:01;;;;;;;23.13;6.22;;;12.60;99.90;;;;;;5055216;28;20142;-72
2022/10/29 01:27:46;;;;;;;16.17;5.85;;;12.40;99.90;;;;;;5053528;28;20052;-71
2022/10/29 01:30:29;;;;;;;17.00;6.38;;;12.40;99.90;;;;;;5082992;28;20052;-71
2022/10/29 01:33:05;;;;;;;16.92;6.30;;;12.30;99.90;;;;;;5065657;28;20045;-72
2022/10/29 01:35:50;;;;;;;16.35;6.68;;;12.20;99.90;;;;;;5065159;28;20048;-71
2022/10/29 01:38:33;;;;;;;9.55;5.07;;;12.20;99.90;;;;;;5083641;28;20064;-71
2022/10/29 01:41:13;;;;;;;9.98;4.63;;;12.20;99.90;;;;;;5068094;28;20051;-71
2022/10/29 01:43:45;;;;;;;13.80;4.78;;;12.00;99.90;;;;;;5087272;28;20397;-71
2022/10/29 01:46:24;;;;;;;15.73;5.03;;;11.70;99.90;;;;;;5066869;28;20084;-72
2022/10/29 01:49:01;;;;;;;12.45;4.68;;;11.60;99.90;;;;;;5074825;28;20040;-71
2022/10/29 01:51:30;;;;;;;11.93;5.60;;;11.60;99.90;;;;;;5069672;28;20095;-72
2022/10/29 01:53:59;;;;;;;23.73;6.57;;;11.60;99.90;;;;;;5087772;28;20044;-71
2022/10/29 01:56:24;;;;;;;20.58;6.20;;;11.70;99.90;;;;;;5052398;28;20177;-71
2022/10/29 01:58:54;;;;;;;19.63;7.28;;;11.80;99.90;;;;;;5056700;28;20041;-72
2022/10/29 02:01:35;;;;;;;20.80;6.78;;;12.00;99.90;;;;;;5086085;28;20040;-71
2022/10/29 02:04:07;;;;;;;22.88;7.00;;;12.00;99.90;;;;;;5071528;28;20087;-71
2022/10/29 02:06:48;;;;;;;23.15;5.78;;;12.10;99.90;;;;;;5084792;28;20049;-71
2022/10/29 02:09:30;;;;;;;23.75;5.70;;;12.00;99.90;;;;;;5069219;28;20048;-71
2022/10/29 02:12:04;;;;;;;21.02;5.97;;;11.80;99.90;;;;;;5087124;28;20049;-71
2022/10/29 02:14:47;;;;;;;13.48;5.40;;;11.50;99.90;;;;;;5086818;28;20112;-71
2022/10/29 02:17:13;;;;;;;22.83;5.68;;;11.40;99.90;;;;;;5069185;28;20128;-71
2022/10/29 02:19:39;;;;;;;15.00;6.43;;;11.50;99.90;;;;;;5069116;28;20442;-71
2022/10/29 02:22:04;;;;;;;32.17;6.20;;;11.60;99.90;;;;;;5084994;28;20074;-72
2022/10/29 02:24:30;;;;;;;42.45;6.63;;;11.60;99.90;;;;;;5087372;28;20104;-71
2022/10/29 02:26:56;;;;;;;14.13;5.85;;;11.50;99.90;;;;;;5065021;28;20041;-72
2022/10/29 02:29:21;;;;;;;14.57;6.18;;;11.40;99.90;;;;;;5063386;28;20052;-72
2022/10/29 02:31:47;;;;;;;11.80;5.47;;;11.30;99.90;;;;;;5051565;28;20052;-72
2022/10/29 02:34:13;;;;;;;14.75;5.05;;;11.30;99.90;;;;;;5051444;28;20040;-72
2022/10/29 02:36:38;;;;;;;8.25;4.47;;;11.20;99.90;;;;;;5085869;28;20048;-72
2022/10/29 02:39:04;;;;;;;8.25;4.93;;;11.00;99.90;;;;;;5085942;28;20048;-71
2022/10/29 02:41:30;;;;;;;15.98;4.68;;;10.90;99.90;;;;;;5086171;28;20096;-71
2022/10/29 02:43:56;;;;;;;40.50;4.78;;;10.90;99.90;;;;;;5085397;28;20040;-71
2022/10/29 02:46:23;;;;;;;30.13;4.60;;;10.70;99.90;;;;;;5066765;28;20131;-72
2022/10/29 02:48:49;;;;;;;7.60;3.38;;;10.50;99.90;;;;;;5067001;28;20067;-72
2022/10/29 02:51:16;;;;;;;5.60;3.50;;;10.40;99.90;;;;;;5067455;28;20044;-71
2022/10/29 02:53:42;;;;;;;9.23;2.70;;;10.40;99.90;;;;;;5066949;28;20560;-72
2022/10/29 02:56:08;;;;;;;5.03;3.05;;;10.40;99.90;;;;;;5073605;28;20040;-71
2022/10/29 02:58:34;;;;;;;5.10;2.85;;;10.40;99.90;;;;;;5085757;28;20139;-71
2022/10/29 03:01:00;;;;;;;6.65;3.35;;;10.40;99.90;;;;;;5083623;28;20129;-71
2022/10/29 03:03:26;;;;;;;8.40;3.92;;;10.30;99.90;;;;;;5086360;28;20044;-71
2022/10/29 03:05:52;;;;;;;12.10;4.55;;;10.20;99.90;;;;;;5065281;28;20059;-71
2022/10/29 03:08:18;;;;;;;12.52;4.60;;;10.20;99.90;;;;;;5076665;28;20068;-72
2022/10/29 03:10:44;;;;;;;9.10;3.53;;;10.10;99.90;;;;;;5067140;28;20052;-71
2022/10/29 03:13:10;;;;;;;5.68;3.13;;;10.20;99.90;;;;;;5067408;28;20417;-71
2022/10/29 03:15:36;;;;;;;6.00;3.25;;;10.20;99.90;;;;;;5067835;28;20056;-72
2022/10/29 03:18:03;;;;;;;7.00;3.60;;;10.30;99.90;;;;;;5067821;28;20609;-71
2022/10/29 03:20:29;;;;;;;8.25;3.28;;;10.20;99.90;;;;;;5063700;28;20045;-71
2022/10/29 03:22:55;;;;;;;14.52;4.47;;;10.20;99.90;;;;;;5066085;28;20048;-72
2022/10/29 03:25:20;;;;;;;9.32;4.65;;;10.20;99.90;;;;;;5067167;28;20075;-71
2022/10/29 03:27:47;;;;;;;19.55;5.75;;;10.20;99.90;;;;;;5067167;28;20065;-71
2022/10/29 03:30:14;;;;;;;17.13;4.00;;;10.30;99.90;;;;;;5084905;28;20186;-72
2022/10/29 03:32:46;;;;;;;12.93;4.13;;;10.20;99.90;;;;;;5083669;28;20044;-71
2022/10/29 03:35:13;;;;;;;14.68;5.18;;;10.20;99.90;;;;;;5066918;28;20100;-72
2022/10/29 03:37:39;;;;;;;18.33;5.78;;;10.10;99.90;;;;;;5083100;28;20115;-72
2022/10/29 03:40:06;;;;;;;12.70;5.35;;;10.10;99.90;;;;;;5063590;28;20053;-71
2022/10/29 03:42:32;;;;;;;12.38;4.78;;;10.10;99.90;;;;;;5063921;28;20060;-72
2022/10/29 03:44:58;;;;;;;13.30;4.45;;;10.10;99.90;;;;;;5084867;28;20048;-71
2022/10/29 03:47:25;;;;;;;11.65;4.78;;;10.00;99.90;;;;;;5066531;28;20055;-71
2022/10/29 03:49:50;;;;;;;7.70;4.18;;;10.10;99.90;;;;;;5066341;28;20094;-72
2022/10/29 03:52:16;;;;;;;8.73;3.58;;;10.20;99.90;;;;;;5050069;28;20048;-71
2022/10/29 03:54:42;;;;;;;13.02;4.25;;;10.20;99.90;;;;;;5083548;28;20088;-72
2022/10/29 03:57:07;;;;;;;12.30;4.95;;;10.30;99.90;;;;;;5084090;28;20067;-72
2022/10/29 03:59:33;;;;;;;12.10;4.10;;;10.50;99.90;;;;;;5083616;28;20113;-71
2022/10/29 04:01:59;;;;;;;22.20;5.00;;;10.60;99.90;;;;;;5085574;28;20120;-71
2022/10/29 04:04:24;;;;;;;15.98;4.63;;;10.60;99.90;;;;;;5064549;28;20041;-71
2022/10/29 04:06:50;;;;;;;11.40;4.95;;;10.50;99.90;;;;;;5060603;28;20051;-71
2022/10/29 04:09:16;;;;;;;8.10;3.60;;;10.50;99.90;;;;;;5083378;28;20067;-71
2022/10/29 04:11:41;;;;;;;13.50;5.90;;;10.50;99.90;;;;;;5085251;28;20107;-71
2022/10/29 04:14:08;;;;;;;16.80;5.55;;;10.40;99.90;;;;;;5084592;28;20036;-71
2022/10/29 04:16:34;;;;;;;25.95;7.70;;;10.40;99.90;;;;;;5065864;28;20051;-71
2022/10/29 04:18:59;;;;;;;26.35;6.70;;;10.50;99.90;;;;;;5067399;28;20040;-71
2022/10/29 04:21:25;;;;;;;22.75;7.20;;;10.60;99.90;;;;;;5066679;28;20043;-72
2022/10/29 04:23:51;;;;;;;27.25;8.82;;;10.70;99.90;;;;;;5067731;28;20524;-72
2022/10/29 04:26:17;;;;;;;39.97;8.45;;;10.80;99.90;;;;;;5083859;28;20044;-72
2022/10/29 04:28:43;;;;;;;24.30;8.98;;;10.90;99.90;;;;;;5085050;28;20107;-72
2022/10/29 04:31:12;;;;;;;30.58;8.75;;;10.90;99.90;;;;;;5066998;28;20117;-71
2022/10/29 04:33:37;;;;;;;30.25;8.57;;;11.00;99.90;;;;;;5085231;28;20053;-71
2022/10/29 04:36:03;;;;;;;35.13;9.32;;;11.10;99.90;;;;;;5084742;28;20055;-71
2022/10/29 04:38:29;;;;;;;31.70;9.00;;;11.10;99.90;;;;;;5082359;28;20041;-71
2022/10/29 04:40:59;;;;;;;33.28;7.72;;;11.20;99.90;;;;;;5083488;28;20060;-72
2022/10/29 04:43:26;;;;;;;28.75;6.55;;;11.30;99.90;;;;;;5084644;28;20044;-72
2022/10/29 04:45:52;;;;;;;25.45;6.25;;;11.30;99.90;;;;;;5065465;28;20059;-72
2022/10/29 04:48:18;;;;;;;17.48;5.45;;;11.30;99.90;;;;;;5065371;28;20449;-72
2022/10/29 04:50:44;;;;;;;16.33;5.40;;;11.30;99.90;;;;;;5049223;28;20084;-71
2022/10/29 04:53:10;;;;;;;14.38;4.82;;;11.30;99.90;;;;;;5065521;28;20047;-71
2022/10/29 04:55:37;;;;;;;16.73;5.53;;;11.30;99.90;;;;;;5082156;28;20052;-71
2022/10/29 04:58:10;;;;;;;15.43;5.53;;;11.40;99.90;;;;;;5064968;28;20108;-71
2022/10/29 05:00:36;;;;;;;19.05;6.97;;;11.40;99.90;;;;;;5062028;28;20128;-72
2022/10/29 05:03:02;;;;;;;19.80;5.80;;;11.40;99.90;;;;;;5080493;28;20045;-71
2022/10/29 05:05:28;;;;;;;23.02;6.43;;;11.40;99.90;;;;;;5084146;28;20098;-71
2022/10/29 05:08:01;;;;;;;20.60;6.63;;;11.50;99.90;;;;;;5083680;28;20047;-71
2022/10/29 05:10:29;;;;;;;24.23;6.90;;;11.50;99.90;;;;;;5064363;28;20044;-71
2022/10/29 05:12:58;;;;;;;21.65;6.45;;;11.50;99.90;;;;;;5083654;28;20028;-71
2022/10/29 05:15:25;;;;;;;21.95;7.25;;;11.60;99.90;;;;;;5068785;28;20048;-72
2022/10/29 05:17:50;;;;;;;27.60;6.53;;;11.60;99.90;;;;;;5065831;28;20104;-72
2022/10/29 05:20:16;;;;;;;21.13;6.30;;;11.60;99.90;;;;;;5077794;28;20044;-71
2022/10/29 05:22:41;;;;;;;29.15;6.97;;;11.60;99.90;;;;;;5052836;28;20052;-71
2022/10/29 05:25:07;;;;;;;24.77;6.90;;;11.60;99.90;;;;;;5066491;28;20049;-72
2022/10/29 05:27:33;;;;;;;26.25;6.30;;;11.60;99.90;;;;;;5084373;28;20040;-72
2022/10/29 05:29:58;;;;;;;26.42;7.32;;;11.60;99.90;;;;;;5088611;28;20087;-71
2022/10/29 05:32:27;;;;;;;35.67;6.93;;;11.60;99.90;;;;;;5068417;28;20056;-72
2022/10/29 05:34:52;;;;;;;33.60;8.10;;;11.50;99.90;;;;;;5086362;28;20370;-71
2022/10/29 05:37:18;;;;;;;40.75;9.45;;;11.70;99.90;;;;;;5084437;28;20105;-71
2022/10/29 05:39:44;;;;;;;47.90;9.57;;;11.70;99.90;;;;;;5086319;28;20504;-71
2022/10/29 05:42:09;;;;;;;38.00;8.43;;;11.70;99.90;;;;;;5087277;28;20098;-71
2022/10/29 05:44:35;;;;;;;35.35;9.35;;;11.80;99.90;;;;;;5067282;28;20041;-71
2022/10/29 05:47:01;;;;;;;35.42;10.18;;;11.80;99.90;;;;;;5065391;28;20053;-71
2022/10/29 05:49:26;;;;;;;38.40;11.90;;;12.00;99.90;;;;;;5087114;28;20104;-71
2022/10/29 05:51:52;;;;;;;45.40;13.35;;;12.00;99.90;;;;;;5087688;28;20052;-71
2022/10/29 05:54:18;;;;;;;45.20;13.23;;;12.10;99.90;;;;;;5069055;28;20119;-71
2022/10/29 05:56:43;;;;;;;39.90;13.65;;;12.20;99.90;;;;;;5084460;28;20056;-71
2022/10/29 05:59:09;;;;;;;39.63;14.07;;;12.20;99.90;;;;;;5067657;28;20098;-72
2022/10/29 06:01:35;;;;;;;33.65;13.52;;;12.20;99.90;;;;;;5084288;28;20059;-71
2022/10/29 06:04:00;;;;;;;45.90;14.55;;;12.20;99.90;;;;;;5085461;28;20062;-71
2022/10/29 06:06:26;;;;;;;39.08;15.05;;;12.30;99.90;;;;;;5067950;28;20048;-71
2022/10/29 06:08:52;;;;;;;44.50;14.20;;;12.30;99.90;;;;;;5085680;28;20041;-71
2022/10/29 06:11:18;;;;;;;49.53;15.20;;;12.40;99.90;;;;;;5085468;28;20048;-71
2022/10/29 06:13:43;;;;;;;43.08;13.98;;;12.40;99.90;;;;;;5085409;28;20032;-71
2022/10/29 06:16:09;;;;;;;44.38;14.82;;;12.40;99.90;;;;;;5067671;28;20056;-71
2022/10/29 06:18:35;;;;;;;40.35;14.18;;;12.50;99.90;;;;;;5050482;28;20043;-71
2022/10/29 06:21:00;;;;;;;48.28;15.27;;;12.50;99.90;;;;;;5084890;28;20067;-71
2022/10/29 06:23:27;;;;;;;41.08;14.73;;;12.50;99.90;;;;;;5067320;28;20067;-71
2022/10/29 06:25:52;;;;;;;41.42;15.00;;;12.50;99.90;;;;;;5064272;28;20045;-71
2022/10/29 06:28:18;;;;;;;43.58;16.08;;;12.50;99.90;;;;;;5063868;28;20052;-71
2022/10/29 06:30:48;;;;;;;39.28;15.95;;;12.60;99.90;;;;;;5063764;28;20056;-71
2022/10/29 06:33:15;;;;;;;41.65;16.33;;;12.50;99.90;;;;;;5065747;28;20052;-71
2022/10/29 06:35:40;;;;;;;34.88;16.02;;;12.60;99.90;;;;;;5052167;28;20051;-71
2022/10/29 06:38:06;;;;;;;34.50;15.35;;;12.60;99.90;;;;;;5090267;28;20080;-71
2022/10/29 06:40:32;;;;;;;34.05;15.88;;;12.60;99.90;;;;;;5068019;28;20109;-71
2022/10/29 06:43:06;;;;;;;38.97;16.00;;;12.60;99.90;;;;;;5085598;28;20045;-71
2022/10/29 06:45:33;;;;;;;41.83;16.27;;;12.60;99.90;;;;;;5064509;28;20056;-71
2022/10/29 06:47:59;;;;;;;44.35;15.95;;;12.60;99.90;;;;;;5063622;28;20052;-71
2022/10/29 06:50:25;;;;;;;37.95;16.52;;;12.60;99.90;;;;;;5067571;28;20129;-67
2022/10/29 06:52:59;;;;;;;40.42;17.90;;;12.60;99.90;;;;;;5065160;28;20047;-67
2022/10/29 06:55:25;;;;;;;37.08;16.63;;;12.60;99.90;;;;;;5064707;28;20044;-68
2022/10/29 06:58:01;;;;;;;34.30;15.80;;;12.60;99.90;;;;;;5069201;28;20040;-66
2022/10/29 07:00:28;;;;;;;33.78;16.55;;;12.70;99.90;;;;;;5068639;28;20047;-67
2022/10/29 07:02:55;;;;;;;36.35;18.70;;;12.70;99.90;;;;;;5080742;28;20117;-67
2022/10/29 07:05:22;;;;;;;37.20;17.30;;;12.70;99.90;;;;;;5084550;28;20052;-67
2022/10/29 07:07:48;;;;;;;34.85;17.27;;;12.80;99.90;;;;;;5085041;28;20036;-66
2022/10/29 07:10:14;;;;;;;38.80;17.98;;;12.70;99.90;;;;;;5067142;28;20083;-67
2022/10/29 07:12:44;;;;;;;32.65;17.88;;;12.80;99.90;;;;;;5050586;28;20099;-66
2022/10/29 07:15:10;;;;;;;30.83;17.00;;;12.80;99.90;;;;;;5068182;28;20048;-66
2022/10/29 07:17:36;;;;;;;37.22;19.33;;;12.80;99.90;;;;;;5067608;28;20052;-67
2022/10/29 07:20:04;;;;;;;39.03;18.65;;;12.90;99.90;;;;;;5066864;28;20139;-67
2022/10/29 07:22:29;;;;;;;35.70;19.67;;;12.90;99.90;;;;;;5066964;28;20076;-67
2022/10/29 07:24:55;;;;;;;33.15;17.23;;;12.90;99.90;;;;;;5085593;28;20180;-66
2022/10/29 07:27:21;;;;;;;31.60;17.48;;;12.90;99.90;;;;;;5084746;28;20134;-66
2022/10/29 07:29:47;;;;;;;34.90;17.73;;;12.90;99.90;;;;;;5065569;28;20040;-67
2022/10/29 07:32:12;;;;;;;41.85;19.02;;;12.90;99.90;;;;;;5048233;28;20056;-66
2022/10/29 07:34:38;;;;;;;33.28;18.42;;;12.90;99.90;;;;;;5052674;28;20390;-67
2022/10/29 07:37:04;;;;;;;39.28;19.25;;;12.90;99.90;;;;;;5049749;28;20110;-67
2022/10/29 07:39:29;;;;;;;32.65;17.70;;;12.90;99.90;;;;;;5046214;28;20092;-68
2022/10/29 07:41:55;;;;;;;33.25;17.45;;;13.00;99.90;;;;;;5062711;28;20053;-66
2022/10/29 07:44:21;;;;;;;34.95;18.17;;;13.00;99.90;;;;;;5044007;28;20044;-67
2022/10/29 07:46:46;;;;;;;34.45;16.30;;;13.00;99.90;;;;;;5062718;28;20048;-67
2022/10/29 07:49:12;;;;;;;39.10;17.45;;;13.00;99.90;;;;;;5064767;28;20070;-67
2022/10/29 07:51:37;;;;;;;39.30;18.58;;;13.00;99.90;;;;;;5059883;28;20053;-67
2022/10/29 07:54:03;;;;;;;43.28;18.50;;;13.00;99.90;;;;;;5067254;28;20047;-67
2022/10/29 07:56:29;;;;;;;34.67;17.58;;;13.00;99.90;;;;;;5066921;28;20557;-68
2022/10/29 07:58:55;;;;;;;31.88;16.75;;;13.00;99.90;;;;;;5082007;28;20047;-68
2022/10/29 08:01:20;;;;;;;33.67;17.17;;;13.00;99.90;;;;;;5049670;28;20045;-68
2022/10/29 08:03:49;;;;;;;32.33;17.00;;;13.00;99.90;;;;;;5073292;28;20049;-68
2022/10/29 08:06:14;;;;;;;30.60;17.88;;;13.10;99.90;;;;;;5084482;28;20059;-68
2022/10/29 08:08:40;;;;;;;32.05;17.58;;;13.10;99.90;;;;;;5066433;28;20119;-68
2022/10/29 08:11:06;;;;;;;30.70;17.48;;;13.10;99.90;;;;;;5078861;28;20048;-68
2022/10/29 08:13:32;;;;;;;34.95;18.45;;;13.10;99.90;;;;;;5085416;28;20056;-68
2022/10/29 08:15:58;;;;;;;29.33;18.08;;;13.10;99.90;;;;;;5066732;28;20072;-67
2022/10/29 08:18:23;;;;;;;29.50;18.75;;;13.20;99.90;;;;;;5049243;28;20045;-68
2022/10/29 08:20:49;;;;;;;29.63;18.98;;;13.20;99.90;;;;;;5083617;28;20041;-68
2022/10/29 08:23:15;;;;;;;27.23;16.92;;;13.30;99.90;;;;;;5075287;28;20492;-67
2022/10/29 08:25:41;;;;;;;30.35;18.95;;;13.20;99.90;;;;;;5049377;28;20067;-69
2022/10/29 08:28:12;;;;;;;28.23;17.63;;;13.30;99.90;;;;;;5082273;28;20044;-69
2022/10/29 08:30:39;;;;;;;35.25;19.00;;;13.30;99.90;;;;;;5065710;28;20110;-69
2022/10/29 08:33:05;;;;;;;30.92;17.83;;;13.30;99.90;;;;;;5065941;28;20040;-69
2022/10/29 08:35:31;;;;;;;30.98;18.10;;;13.40;99.90;;;;;;5065944;28;20478;-68
2022/10/29 08:37:57;;;;;;;29.23;16.95;;;13.40;99.90;;;;;;5078759;28;20044;-71
2022/10/29 08:40:42;;;;;;;30.40;16.77;;;13.40;99.90;;;;;;5083978;28;20078;-74
2022/10/29 08:43:46;;;;;;;32.75;17.55;;;13.50;99.90;;;;;;5063234;28;20053;-69
2022/10/29 08:46:37;;;;;;;32.55;18.58;;;13.50;99.90;;;;;;5063943;28;20045;-70
2022/10/29 08:49:10;;;;;;;29.88;17.25;;;13.60;99.90;;;;;;5049033;28;20057;-71
2022/10/29 08:51:39;;;;;;;29.13;18.20;;;13.70;99.90;;;;;;5063806;28;20044;-71
2022/10/29 08:54:14;;;;;;;38.20;17.63;;;13.70;99.90;;;;;;5083478;28;20725;-72
2022/10/29 08:56:46;;;;;;;30.45;17.80;;;13.70;99.90;;;;;;5062325;28;20049;-72
2022/10/29 08:59:21;;;;;;;31.13;17.35;;;13.80;99.90;;;;;;5079692;28;20044;-70
2022/10/29 09:01:48;;;;;;;28.67;17.02;;;13.90;99.90;;;;;;5064686;28;20068;-70
2022/10/29 09:04:32;;;;;;;33.95;18.48;;;14.00;99.90;;;;;;5083518;28;20049;-70
2022/10/29 09:07:10;;;;;;;33.58;16.85;;;14.00;99.90;;;;;;5083956;28;20408;-70
2022/10/29 09:10:02;;;;;;;27.20;16.65;;;14.10;99.90;;;;;;5083718;28;20037;-70
2022/10/29 09:12:46;;;;;;;32.13;19.77;;;14.10;99.90;;;;;;5065541;28;20123;-70
2022/10/29 09:15:24;;;;;;;27.65;16.70;;;14.20;99.90;;;;;;5066102;28;20135;-70
2022/10/29 09:18:26;;;;;;;34.65;17.50;;;14.30;99.90;;;;;;5084946;28;20091;-70
2022/10/29 09:21:21;;;;;;;31.00;17.70;;;14.30;99.90;;;;;;5065994;28;20048;-70
2022/10/29 09:23:51;;;;;;;32.38;17.92;;;14.40;99.90;;;;;;5063022;28;20111;-69
2022/10/29 09:26:28;;;;;;;30.33;17.73;;;14.50;99.90;;;;;;5065821;28;20076;-70
2022/10/29 09:29:11;;;;;;;32.88;18.38;;;14.50;99.90;;;;;;5065738;28;20043;-70
2022/10/29 09:31:42;;;;;;;33.75;18.13;;;14.50;99.90;;;;;;5065675;28;20044;-70
2022/10/29 09:34:16;;;;;;;25.52;16.67;;;14.50;99.90;;;;;;5084971;28;20048;-70
2022/10/29 09:36:45;;;;;;;31.10;16.08;;;14.50;99.90;;;;;;5086234;28;20049;-70
2022/10/29 09:39:22;;;;;;;28.33;16.23;;;14.60;99.90;;;;;;5074192;28;20103;-70
2022/10/29 09:41:51;;;;;;;32.08;18.30;;;14.70;99.90;;;;;;5062741;28;20057;-69
2022/10/29 09:44:17;;;;;;;29.95;17.25;;;14.70;99.90;;;;;;5062319;28;20053;-70
2022/10/29 09:47:21;;;;;;;29.63;17.08;;;14.70;99.90;;;;;;5062316;28;20506;-70
2022/10/29 09:50:04;;;;;;;36.38;17.42;;;14.90;99.90;;;;;;5047088;28;20518;-69
2022/10/29 09:52:35;;;;;;;33.72;16.65;;;14.90;99.90;;;;;;5048663;28;20065;-69
2022/10/29 09:55:03;;;;;;;30.00;16.92;;;15.00;99.90;;;;;;5061797;28;20128;-69
2022/10/29 09:57:33;;;;;;;27.80;16.75;;;15.00;99.90;;;;;;5061942;28;20075;-70
2022/10/29 10:00:02;;;;;;;35.72;16.63;;;15.20;99.90;;;;;;5062787;28;20080;-69
2022/10/29 10:02:41;;;;;;;30.52;14.77;;;15.20;99.90;;;;;;5066928;28;20093;-70
2022/10/29 10:05:15;;;;;;;31.50;15.93;;;15.30;99.90;;;;;;5065627;28;20475;-70
2022/10/29 10:07:41;;;;;;;32.92;14.90;;;15.30;99.90;;;;;;5065776;28;20041;-70
2022/10/29 10:10:20;;;;;;;23.67;15.80;;;15.50;99.90;;;;;;5081749;28;20076;-69
2022/10/29 10:12:47;;;;;;;29.83;15.30;;;15.50;99.90;;;;;;5065540;28;20096;-70
2022/10/29 10:15:17;;;;;;;33.65;17.63;;;15.60;99.90;;;;;;5065343;28;20049;-70
2022/10/29 10:18:17;;;;;;;31.85;15.75;;;15.70;99.90;;;;;;5061816;28;20045;-70
2022/10/29 10:20:45;;;;;;;26.25;14.90;;;15.80;99.90;;;;;;5061976;28;20049;-70
2022/10/29 10:23:42;;;;;;;28.85;15.75;;;15.80;99.90;;;;;;5066748;28;20396;-70
2022/10/29 10:26:43;;;;;;;30.17;16.00;;;15.80;99.90;;;;;;5066330;28;20044;-70
2022/10/29 10:29:17;;;;;;;27.38;15.57;;;15.90;99.90;;;;;;4988845;28;20042;-70
2022/10/29 10:31:45;;;;;;;27.40;17.13;;;16.00;99.90;;;;;;5005719;28;20057;-69
2022/10/29 10:34:19;;;;;;;28.35;17.77;;;16.00;99.90;;;;;;4989652;28;20061;-69
2022/10/29 10:36:47;;;;;;;31.55;18.10;;;16.10;99.90;;;;;;4988774;28;20054;-70
2022/10/29 10:39:35;;;;;;;32.45;17.17;;;16.20;99.90;;;;;;5013318;28;20045;-70
2022/10/29 10:42:04;;;;;;;28.48;17.88;;;16.20;99.90;;;;;;5007432;28;20057;-70
2022/10/29 10:44:30;;;;;;;26.98;16.83;;;16.30;99.90;;;;;;5008007;28;20558;-70
2022/10/29 10:47:03;;;;;;;33.75;18.00;;;16.30;99.90;;;;;;5024382;28;20049;-70
2022/10/29 10:49:34;;;;;;;33.55;18.17;;;16.50;99.90;;;;;;5007270;28;20100;-69
2022/10/29 10:52:13;;;;;;;29.80;16.45;;;16.50;99.90;;;;;;5023630;28;20284;-70
2022/10/29 10:54:44;;;;;;;28.38;17.55;;;16.50;99.90;;;;;;5007226;28;20072;-70
2022/10/29 10:57:09;;;;;;;30.75;17.80;;;16.70;99.90;;;;;;5023678;28;20089;-70
2022/10/29 10:59:35;;;;;;;27.88;16.67;;;16.80;99.90;;;;;;5023359;28;20046;-70
2022/10/29 11:02:03;;;;;;;26.27;17.23;;;17.00;99.90;;;;;;5009863;28;20125;-70
2022/10/29 11:04:36;;;;;;;29.45;17.27;;;17.00;99.90;;;;;;5047655;28;20055;-70
2022/10/29 11:07:09;;;;;;;35.72;16.92;;;17.10;99.90;;;;;;5047634;28;20100;-70
2022/10/29 11:09:44;;;;;;;28.33;15.90;;;17.20;99.90;;;;;;5063935;28;20041;-70
2022/10/29 11:12:18;;;;;;;22.33;14.73;;;17.10;99.90;;;;;;5046154;28;20045;-70
2022/10/29 11:14:56;;;;;;;26.98;14.63;;;17.20;99.90;;;;;;5047193;28;20051;-70
2022/10/29 11:17:34;;;;;;;27.65;14.10;;;17.20;99.90;;;;;;5047172;28;20057;-70
2022/10/29 11:20:13;;;;;;;23.40;14.10;;;17.30;99.90;;;;;;5047760;28;20053;-70
2022/10/29 11:23:14;;;;;;;22.65;13.30;;;17.30;99.90;;;;;;5046226;28;20094;-69
2022/10/29 11:25:46;;;;;;;24.17;13.32;;;17.40;99.90;;;;;;5046862;28;20124;-70
2022/10/29 11:28:18;;;;;;;27.15;13.35;;;17.60;99.90;;;;;;5047426;28;20057;-70
2022/10/29 11:30:50;;;;;;;21.75;13.00;;;17.70;99.90;;;;;;5063541;28;20049;-70
2022/10/29 11:33:25;;;;;;;27.25;13.98;;;17.80;99.90;;;;;;5046773;28;20045;-70
2022/10/29 11:36:05;;;;;;;26.00;13.27;;;17.80;99.90;;;;;;5046885;28;20073;-70
2022/10/29 11:38:42;;;;;;;30.58;14.77;;;17.90;99.90;;;;;;5063979;28;20052;-70
2022/10/29 11:41:18;;;;;;;19.42;13.10;;;18.00;99.90;;;;;;5043940;28;20054;-70
2022/10/29 11:43:46;;;;;;;24.90;12.43;;;18.00;99.90;;;;;;5043473;28;20045;-70
2022/10/29 11:46:40;;;;;;;24.55;14.30;;;18.10;99.90;;;;;;5047234;28;20076;-70
2022/10/29 11:49:17;;;;;;;19.90;12.05;;;18.10;99.90;;;;;;5047970;28;20521;-69
2022/10/29 11:52:02;;;;;;;23.27;13.43;;;18.10;99.90;;;;;;5046904;28;20513;-70
2022/10/29 11:54:33;;;;;;;25.88;13.80;;;18.10;99.90;;;;;;5046709;28;20048;-70
2022/10/29 11:57:30;;;;;;;22.95;13.27;;;18.10;99.90;;;;;;5047186;28;20049;-70
2022/10/29 12:00:04;;;;;;;26.55;14.70;;;18.30;99.90;;;;;;5047051;28;20152;-70
2022/10/29 12:02:48;;;;;;;23.15;13.52;;;18.30;99.90;;;;;;5046891;28;20116;-69
2022/10/29 12:05:38;;;;;;;25.48;14.20;;;18.30;99.90;;;;;;5048120;28;20041;-70
2022/10/29 12:08:13;;;;;;;26.90;13.30;;;18.40;99.90;;;;;;5028055;28;20045;-70
2022/10/29 12:10:45;;;;;;;21.58;12.57;;;18.60;99.90;;;;;;5017221;28;20052;-70
2022/10/29 12:13:30;;;;;;;22.55;12.32;;;18.70;99.90;;;;;;5028326;28;20067;-71
2022/10/29 12:16:11;;;;;;;21.80;12.07;;;18.80;99.90;;;;;;5017684;28;20057;-70
2022/10/29 12:19:20;;;;;;;25.27;13.95;;;19.10;99.90;;;;;;5012728;28;20056;-69
2022/10/29 12:22:07;;;;;;;22.60;12.13;;;19.40;99.90;;;;;;5027514;28;20436;-70
2022/10/29 12:25:00;;;;;;;21.23;12.70;;;19.50;99.90;;;;;;5039124;28;20055;-70
2022/10/29 12:27:53;;;;;;;26.38;13.45;;;19.50;99.90;;;;;;5029891;28;20126;-70
2022/10/29 12:30:22;;;;;;;27.92;12.93;;;19.40;99.90;;;;;;5057227;28;20078;-70
2022/10/29 12:32:57;;;;;;;26.70;14.00;;;19.40;99.90;;;;;;5029712;28;20045;-69
2022/10/29 12:35:22;;;;;;;26.27;12.75;;;19.30;99.90;;;;;;5056134;28;20089;-70
2022/10/29 12:38:22;;;;;;;27.42;13.02;;;19.30;99.90;;;;;;5030860;28;20060;-70
2022/10/29 12:40:52;;;;;;;25.17;14.05;;;19.30;99.90;;;;;;5061945;28;20044;-70
2022/10/29 12:43:21;;;;;;;30.17;14.48;;;19.30;99.90;;;;;;5049298;28;20101;-70
2022/10/29 12:46:03;;;;;;;25.00;13.40;;;19.30;99.90;;;;;;5059409;28;20056;-70
2022/10/29 12:48:52;;;;;;;21.75;13.40;;;19.30;99.90;;;;;;5049655;28;20064;-70
2022/10/29 12:51:34;;;;;;;26.23;13.80;;;19.30;99.90;;;;;;5049012;28;20539;-70
2022/10/29 12:54:11;;;;;;;25.75;14.05;;;19.30;99.90;;;;;;5043186;28;20052;-70